Contact Us:
Email: info@sawbill.com
Phone: (218)663-7150
Fax: (218)663-7980
Mail: 4620 Sawbill Trail
Box 2129
Tofte, MN 55615


Powered by
Movable Type 3.15
 
Sawbill Weather History Archives: January 2006
Current Sawbill Weather History | « December 2005 | February 2006 »


Date

High
Temperature

Low
Temperature

Barometric
Pressure

Relative
Humidity 7AM

9 AM
Temperature

Moisture

Snow

1/31/06 34 4 29.44 75% 28 .2" 2"
1/30/06 29 4 29.80 63% 5 0
1/29/06 29 11 29.72 61% 11 0
1/28/06 38 25 29.61 73% 25 Trace Trace
1/27/06 49 24 30.06 76% 26 0
1/26/06 40 19 29.74 71% 38 0
1/25/06 29 13 30.18 77% 19 0
1/24/06 24 14 30.20 69% 14 0
1/23/06 31 6 29.40 73% 20 .06" 2"
1/22/06 30 7 29.90 64% 7 .20" 2"
1/21/06 28 4 30.16 77% 25 .01" .5"
1/20/06 27 4 30.13 58% 4 0
1/19/06 23 -2 29.91 74% 21 0
1/18/06 17 0 29.80 58% 1 0
1/17/06 25 6 29.52 65% 7 0
1/16/06 30 20 29.58 69% 20 .18" 3"
1/15/06 30 26 29.62 78% 28 0
1/14/06 26 6 29.78 75% 26 0
1/13/06 29 6 30.06 61% 6 0
1/12/06 38 24 29.81 68% 24 0
1/11/06 37 21 29.52 72% 25 .03" 1"
1/10/06 36 12 29.58 75% 25 0
1/9/06 27 8 29.92 63% 8 0
1/8/06 30 16 30.05 70% 16 .22" 2"
1/7/06 40 21 29.71 79% 26 0
1/6/06 27 20 29.65 74% 20 0
1/5/06 24 19 30.01 73% 21 0
1/4/06 34 22 30.08 75% 23 Trace Trace
1/3/06 35 33 29.73 83% 34 0
1/2/06 33 22 29.86 84% 33 0
1/1/06 30 9 30.00 77% 25 0
 


Home I Trip Planning I Rentals and Outfitting I Reservations I Campgrounds I Sawbill Store I Sawbill News I Contact

© 1997 - 2017, Sawbill Canoe Outfitters, Inc. I Privacy Policy